Flight Track Log - Related Links

Times and Time Zones

All times are in EDT time to prevent confusion due to time zone crossing. See the UAL698 flight status page for this flight to view local times or setup timezone preferences in your user account.

Time Position Orientation Groundspeed Altitude Reporting Facility
EDT Latitude Longitude Course Direction KTS MPH feet Rate Location/Type
Fri 08:11:22 AM 41.4153 -81.8375 210° Southwest 156 180 1,700  Level Cleveland Center
Fri 08:12:48 AM 41.4392 -81.7464 71° East 200 230 4,700 2,219 Climbing Cleveland Center
Fri 08:13:48 AM 41.4231 -81.6742 107° East 206 237 7,100 2,700 Climbing Cleveland Center
Fri 08:14:00 AM 41.0973 -82.0858 167° South  Level FlightAware Approximate
Fri 08:14:48 AM 41.3458 -81.7006 194° South 217 250 10,100  Level Cleveland Center
Fri 08:15:00 AM 40.9776 -82.0489 171° South  Level FlightAware Approximate
Fri 08:15:48 AM 41.2658 -81.7656 211° Southwest 277 319 12,400  Level Cleveland Center
Fri 08:16:00 AM 40.8616 -82.0630 210° Southwest  Level FlightAware Approximate
Fri 08:16:48 AM 41.1839 -81.8303 211° Southwest 318 366 15,000  Level Cleveland Center
Fri 08:17:48 AM 41.1019 -81.8947 211° Southwest 365 420 17,300 2,152 Climbing Cleveland Center
Fri 08:20:06 AM 40.8794 -82.0603 209° Southwest 404 465 22,100 1,809 Climbing Indianapolis Center
Fri 08:21:07 AM 40.7797 -82.1333 209° Southwest 406 467 23,300 1,033 Climbing Indianapolis Center
Fri 08:22:08 AM 40.6694 -82.2136 209° Southwest 446 513 24,200 1,065 Climbing Indianapolis Center
Fri 08:23:11 AM 40.5558 -82.2964 209° Southwest 463 533 25,500 1,306 Climbing Indianapolis Center
Fri 08:24:12 AM 40.4392 -82.3814 209° Southwest 473 544 26,900 1,339 Climbing Indianapolis Center
Fri 08:25:12 AM 40.3208 -82.4661 209° Southwest 478 550 28,200 1,082 Climbing Indianapolis Center
Fri 08:26:14 AM 40.2033 -82.5489 208° Southwest 490 564 29,100 1,248 Climbing Indianapolis Center
Fri 08:27:17 AM 40.0428 -82.5978 193° South 500 575 30,800 1,317 Climbing Indianapolis Center
Fri 08:28:17 AM 39.9039 -82.6047 182° South 493 567 31,800 1,258 Climbing Indianapolis Center
Fri 08:29:21 AM 39.7656 -82.6144 183° South 491 565 33,400 1,344 Climbing Indianapolis Center
Fri 08:30:22 AM 39.6292 -82.6231 183° South 485 558 34,600 1,033 Climbing Indianapolis Center
Fri 08:31:23 AM 39.4928 -82.6328 183° South 484 557 35,500 992 Climbing Indianapolis Center
Fri 08:32:23 AM 39.3581 -82.6422 183° South 481 554 36,600 1,161 Climbing Indianapolis Center
Fri 08:33:27 AM 39.2272 -82.6506 183° South 472 543 37,900 677 Climbing Indianapolis Center
Fri 08:34:27 AM 39.1083 -82.6581 183° South 456 525 38,000 48 Climbing Indianapolis Center
Fri 08:35:31 AM 38.9814 -82.6664 183° South 459 528 38,000  Level Indianapolis Center
Fri 08:36:31 AM 38.8292 -82.6769 183° South 458 527 38,000  Level Indianapolis Center
Fri 08:37:32 AM 38.7017 -82.6847 183° South 459 528 38,000  Level Indianapolis Center
Fri 08:38:33 AM 38.5775 -82.6917 183° South 457 526 38,000  Level Indianapolis Center
Fri 08:39:34 AM 38.4483 -82.7011 183° South 461 531 38,000 48 Level Indianapolis Center
Fri 08:40:38 AM 38.3206 -82.7083 183° South 460 529 38,100  Climbing Indianapolis Center
Fri 08:41:39 AM 38.1728 -82.7183 183° South 454 522 38,000 -50 Descending Indianapolis Center
Fri 08:42:39 AM 38.0494 -82.7275 183° South 444 511 38,000  Level Indianapolis Center
Fri 08:43:41 AM 37.9264 -82.7356 183° South 441 507 38,000  Level Indianapolis Center
Fri 08:44:44 AM 37.8042 -82.7436 183° South 439 505 38,000  Level Indianapolis Center
Fri 08:45:45 AM 37.6842 -82.7653 188° South 437 503 38,000  Level Indianapolis Center
Fri 08:46:45 AM 37.5731 -82.8192 201° Southwest 427 491 38,000  Level Indianapolis Center
Fri 08:47:49 AM 37.4683 -82.8897 208° Southwest 425 489 38,000  Level Indianapolis Center
Fri 08:48:49 AM 37.3469 -82.9697 208° Southwest 421 484 38,000  Level Indianapolis Center
Fri 08:49:52 AM 37.2439 -83.0372 208° Southwest 420 483 38,000  Level Indianapolis Center
Fri 08:50:52 AM 37.1411 -83.1042 207° Southwest 418 481 38,000  Level Indianapolis Center
Fri 08:51:53 AM 37.0383 -83.1719 208° Southwest 420 483 38,000  Level Indianapolis Center
Fri 08:52:57 AM 36.9314 -83.2344 205° Southwest 429 494 38,000  Level Indianapolis Center
Fri 08:53:57 AM 36.8161 -83.2767 196° South 434 499 38,000 48 Level Indianapolis Center
Fri 08:55:01 AM 36.6806 -83.3275 197° South 437 503 38,100 48 Climbing Indianapolis Center
Fri 08:56:01 AM 36.5653 -83.3692 196° South 433 498 38,100 -50 Level Indianapolis Center
Fri 08:57:02 AM 36.4525 -83.4125 197° South 425 489 38,000 -48 Descending Indianapolis Center
Fri 08:58:06 AM 36.3389 -83.4553 197° South 424 488 38,000  Level Indianapolis Center
Fri 08:59:07 AM 36.2253 -83.4978 197° South 427 491 38,000  Level Indianapolis Center
Fri 09:00:08 AM 36.1142 -83.5386 197° South 424 488 38,000  Level Indianapolis Center
Fri 09:00:43 AM 36.0406 -83.5661 197° South 429 494 38,000  Level Atlanta Center
Fri 09:01:43 AM 35.9239 -83.6081 196° South 424 488 38,000  Level Atlanta Center
Fri 09:02:43 AM 35.8094 -83.6547 198° South 424 488 38,000  Level Atlanta Center
Fri 09:03:43 AM 35.6969 -83.6936 196° South 424 488 38,000  Level Atlanta Center
Fri 09:04:43 AM 35.5822 -83.7375 197° South 424 488 38,000  Level Atlanta Center
Fri 09:05:43 AM 35.4656 -83.7811 197° South 429 494 38,000  Level Atlanta Center
Fri 09:06:43 AM 35.3489 -83.8222 196° South 434 499 38,000  Level Atlanta Center
Fri 09:07:43 AM 35.2342 -83.8633 196° South 434 499 38,000  Level Atlanta Center
Fri 09:08:43 AM 35.1172 -83.9067 197° South 439 505 38,000  Level Atlanta Center
Fri 09:09:43 AM 35.0025 -83.9475 196° South 439 505 38,000  Level Atlanta Center
Fri 09:10:43 AM 34.8900 -83.9906 197° South 434 499 38,000  Level Atlanta Center
Fri 09:11:43 AM 34.7711 -84.0311 196° South 434 499 38,000  Level Atlanta Center
Fri 09:12:43 AM 34.6478 -84.0767 197° South 434 499 38,000  Level Atlanta Center
Fri 09:13:43 AM 34.5436 -84.1119 196° South 428 493 38,000  Level Atlanta Center
Fri 09:14:43 AM 34.4308 -84.1522 196° South 423 487 38,000  Level Atlanta Center
Fri 09:15:43 AM 34.3181 -84.1922 196° South 423 487 38,000  Level Atlanta Center
Fri 09:16:43 AM 34.2031 -84.2322 196° South 423 487 38,000  Level Atlanta Center
Fri 09:17:43 AM 34.0861 -84.2769 198° South 428 493 38,000  Level Atlanta Center
Fri 09:18:43 AM 33.9714 -84.3169 196° South 428 493 38,000  Level Atlanta Center
Fri 09:19:43 AM 33.8522 -84.3589 196° South 439 505 38,000  Level Atlanta Center
Fri 09:20:43 AM 33.7394 -84.3986 196° South 432 497 38,000  Level Atlanta Center
Fri 09:21:43 AM 33.6203 -84.4331 194° South 432 497 38,000 -100 Level Atlanta Center
Fri 09:22:43 AM 33.4783 -84.4322 180° South 451 519 37,800 -450 Descending Atlanta Center
Fri 09:23:43 AM 33.3700 -84.4319 180° South 451 519 37,100 -400 Descending Atlanta Center
Fri 09:24:43 AM 33.2447 -84.4289 179° South 444 511 37,000 -50 Descending Atlanta Center
Fri 09:25:43 AM 33.1236 -84.4283 180° South 444 511 37,000  Level Atlanta Center
Fri 09:26:43 AM 32.9983 -84.4228 178° South 444 511 37,000  Level Atlanta Center
Fri 09:27:43 AM 32.8731 -84.4222 180° South 444 511 37,000  Level Atlanta Center
Fri 09:28:43 AM 32.7394 -84.4217 180° South 438 504 37,000  Level Atlanta Center
Fri 09:29:43 AM 32.6186 -84.4161 178° South 438 504 37,000  Level Atlanta Center
Fri 09:30:43 AM 32.4933 -84.4156 180° South 438 504 37,000  Level Atlanta Center
Fri 09:31:43 AM 32.3700 -84.4103 178° South 438 504 37,000  Level Atlanta Center
Fri 09:32:43 AM 32.2469 -84.4072 179° South 438 504 37,000  Level Atlanta Center
Fri 09:33:43 AM 32.1239 -84.4067 180° South 438 504 37,000  Level Atlanta Center
Fri 09:34:43 AM 31.9967 -84.4039 179° South 438 504 37,000  Level Atlanta Center
Fri 09:35:38 AM 31.8944 -84.4022 179° South 448 516 37,000  Level Jacksonville Center
Fri 09:36:38 AM 31.7692 -84.4003 179° South 453 521 37,000  Level Jacksonville Center
Fri 09:37:38 AM 31.6419 -84.3983 179° South 453 521 37,000  Level Jacksonville Center
Fri 09:38:38 AM 31.5019 -84.3961 179° South 458 527 37,000  Level Jacksonville Center
Fri 09:39:38 AM 31.3850 -84.4014 182° South 451 519 37,000  Level Jacksonville Center
Fri 09:40:38 AM 31.2883 -84.4631 209° Southwest 402 463 37,000  Level Jacksonville Center
Fri 09:41:38 AM 31.1811 -84.5122 201° Southwest 413 475 37,000  Level Jacksonville Center
Fri 09:42:38 AM 31.0603 -84.4933 172° South 413 475 37,000  Level Jacksonville Center
Fri 09:43:38 AM 30.9417 -84.4644 168° South 423 487 37,000  Level Jacksonville Center
Fri 09:44:38 AM 30.8231 -84.4358 168° South 428 493 37,000  Level Jacksonville Center
Fri 09:45:38 AM 30.7067 -84.3858 160° South 433 498 37,000 50 Level Jacksonville Center
Fri 09:46:38 AM 30.5967 -84.3164 151° Southeast 439 505 37,100  Climbing Jacksonville Center
Fri 09:47:38 AM 30.4992 -84.2594 153° Southeast 439 505 37,000 -50 Descending Jacksonville Center
Fri 09:48:38 AM 30.3875 -84.1786 148° Southeast 439 505 37,000  Level Jacksonville Center
Fri 09:49:38 AM 30.2839 -84.1000 147° Southeast 439 505 37,000 -50 Level Jacksonville Center
Fri 09:50:38 AM 30.1822 -84.0244 147° Southeast 439 505 36,900 -50 Descending Jacksonville Center
Fri 09:51:38 AM 30.0825 -83.9439 145° Southeast 439 505 36,900  Level Jacksonville Center
Fri 09:52:38 AM 29.9831 -83.8636 145° Southeast 439 505 36,900  Level Jacksonville Center
Fri 09:53:38 AM 29.8875 -83.7789 142° Southeast 439 505 36,900  Level Jacksonville Center
Fri 09:54:38 AM 29.7881 -83.6919 143° Southeast 444 511 36,900 -100 Level Jacksonville Center
Fri 09:55:38 AM 29.6842 -83.6194 149° Southeast 444 511 36,700 -1,300 Descending Jacksonville Center
Fri 09:56:38 AM 29.5672 -83.5897 168° South 424 488 34,300 -2,650 Descending Jacksonville Center
Fri 09:57:38 AM 29.4464 -83.5628 169° South 436 502 31,400 -3,000 Descending Jacksonville Center
Fri 09:58:38 AM 29.3233 -83.5356 169° South 446 513 28,300 -2,250 Descending Jacksonville Center
Fri 09:59:38 AM 29.1983 -83.4967 165° South 451 519 26,900 -1,150 Descending Jacksonville Center
Fri 10:00:38 AM 29.0839 -83.4247 151° Southeast 456 525 26,000 -1,200 Descending Jacksonville Center
Fri 10:01:38 AM 28.9775 -83.3578 151° Southeast 450 518 24,500 -1,750 Descending Jacksonville Center
Fri 10:02:38 AM 28.8778 -83.2933 150° Southeast 429 494 22,500 -2,550 Descending Jacksonville Center
Fri 10:03:38 AM 28.7861 -83.2336 150° Southeast 402 463 19,400 -2,696 Descending Jacksonville Center
Fri 10:06:05 AM 28.5667 -83.1000 152° Southeast 350 403 13,200 -1,884 Descending Tampa TRACON
Fri 10:07:05 AM 28.4833 -83.0500 152° Southeast 346 398 12,900 -700 Descending Tampa TRACON
Fri 10:08:05 AM 28.4000 -83.0000 152° Southeast 311 358 11,800 -1,300 Descending Tampa TRACON
Fri 10:09:05 AM 28.3500 -82.9333 130° Southeast 306 352 10,300 -1,500 Descending Tampa TRACON
Fri 10:10:05 AM 28.3333 -82.8500 103° East 297 342 8,800 -1,537 Descending Tampa TRACON
Fri 10:11:06 AM 28.3167 -82.7500 101° East 290 334 7,200 -1,400 Descending Tampa TRACON
Fri 10:12:05 AM 28.3000 -82.6667 103° East 289 333 6,000 -800 Descending Tampa TRACON
Fri 10:13:06 AM 28.2833 -82.5833 103° East 276 318 5,600 -595 Descending Tampa TRACON
Fri 10:14:06 AM 28.2500 -82.5167 120° Southeast 246 283 4,800 -850 Descending Tampa TRACON
Fri 10:15:06 AM 28.1833 -82.5333 192° South 222 255 3,900 -900 Descending Tampa TRACON

Login

Don't have an account? Register now (free) for customized features, flight alerts, and more!